Time;durP1;ratioP1;P1;durP2;ratioP2;P2;SDS_P1;SDS_P2;PMS_P1;PMS_P2;Temp;Humidity;BMP_temperature;BMP_pressure;BME280_temperature;BME280_humidity;BME280_pressure;Samples;Min_cycle;Max_cycle;Signal;HPM_P1;HPM_P2
2021/06/30 05:54:20;;;;;;;6.37;5.67;;;;;;;;;;10590460;27;20520;-85
2021/06/30 05:59:21;;;;;;;10.07;7.68;;;;;;;;;;10590896;28;20024;-85
2021/06/30 06:04:22;;;;;;;9.18;7.25;;;;;;;;;;10589426;28;20016;-86
2021/06/30 06:09:23;;;;;;;5.43;4.93;;;;;;;;;;10590431;28;20020;-83
2021/06/30 06:14:24;;;;;;;9.52;8.57;;;;;;;;;;10601022;28;20038;-83
2021/06/30 06:19:25;;;;;;;5.68;5.05;;;;;;;;;;10605369;28;20027;-85
2021/06/30 06:24:27;;;;;;;5.07;4.57;;;;;;;;;;10619667;28;20074;-84
2021/06/30 06:29:28;;;;;;;5.72;5.22;;;;;;;;;;10619901;28;20031;-86
2021/06/30 06:34:29;;;;;;;4.10;3.67;;;;;;;;;;10621114;28;20020;-85
2021/06/30 06:39:30;;;;;;;6.13;4.90;;;;;;;;;;10621587;28;20042;-84
2021/06/30 06:44:31;;;;;;;5.15;4.00;;;;;;;;;;10621197;28;20035;-84
2021/06/30 06:49:32;;;;;;;4.18;3.38;;;;;;;;;;10621572;28;20015;-83
2021/06/30 06:54:39;;;;;;;4.20;2.60;;;;;;;;;;10622095;28;20046;-81
2021/06/30 06:59:40;;;;;;;4.90;4.28;;;;;;;;;;10620810;28;20039;-84
2021/06/30 07:04:41;;;;;;;3.47;2.53;;;;;;;;;;10591745;28;20067;-83
2021/06/30 07:16:08;;;;;;;3.13;2.70;;;;;;;;;;10465361;28;20033;-84
2021/06/30 07:21:10;;;;;;;3.25;2.65;;;;;;;;;;10591213;28;20032;-84
2021/06/30 07:26:31;;;;;;;3.92;2.85;;;;;;;;;;10593392;28;20067;-85
2021/06/30 07:37:26;;;;;;;4.32;2.47;;;;;;;;;;10569815;28;20028;-86
2021/06/30 07:43:00;;;;;;;3.70;2.95;;;;;;;;;;10592095;28;20036;-82
2021/06/30 07:48:07;;;;;;;4.60;4.03;;;;;;;;;;10566800;28;20100;-85
2021/06/30 07:53:15;;;;;;;6.55;3.63;;;;;;;;;;10612517;28;20036;-85
2021/06/30 07:58:19;;;;;;;4.25;3.33;;;;;;;;;;10592658;28;20020;-85
2021/06/30 08:03:20;;;;;;;4.50;3.70;;;;;;;;;;10592465;28;20066;-87
2021/06/30 08:08:56;;;;;;;4.40;4.00;;;;;;;;;;10599301;28;20023;-86
2021/06/30 08:14:12;;;;;;;5.68;3.35;;;;;;;;;;10619270;28;20032;-85
2021/06/30 08:19:13;;;;;;;4.03;3.55;;;;;;;;;;10589984;28;20023;-85
2021/06/30 08:24:27;;;;;;;6.95;6.25;;;;;;;;;;10591715;28;20454;-86
2021/06/30 08:29:47;;;;;;;7.15;5.95;;;;;;;;;;10595672;28;20034;-86
2021/06/30 08:35:01;;;;;;;6.40;5.80;;;;;;;;;;10605999;28;20018;-83
2021/06/30 08:40:02;;;;;;;6.15;5.63;;;;;;;;;;10599659;28;20385;-83
2021/06/30 08:45:22;;;;;;;6.43;5.82;;;;;;;;;;10575406;28;20031;-87
2021/06/30 08:50:24;;;;;;;7.38;6.43;;;;;;;;;;10571384;28;20024;-86
2021/06/30 08:56:04;;;;;;;8.02;7.32;;;;;;;;;;10560650;28;20038;-86
2021/06/30 09:01:06;;;;;;;6.47;5.88;;;;;;;;;;10543184;28;20055;-86
2021/06/30 09:06:16;;;;;;;6.80;6.15;;;;;;;;;;10579240;28;20024;-82
2021/06/30 09:11:18;;;;;;;6.68;5.97;;;;;;;;;;10553805;28;20047;-83
2021/06/30 09:17:03;;;;;;;6.75;6.03;;;;;;;;;;10586017;28;20059;-83
2021/06/30 09:22:31;;;;;;;7.50;6.70;;;;;;;;;;10480419;28;20039;-84
2021/06/30 09:27:38;;;;;;;7.85;7.10;;;;;;;;;;10600535;28;20023;-85
2021/06/30 09:33:30;;;;;;;9.00;8.10;;;;;;;;;;10582146;28;20043;-86
2021/06/30 09:38:55;;;;;;;9.93;8.90;;;;;;;;;;10567453;28;20023;-84
2021/06/30 09:44:02;;;;;;;9.57;8.45;;;;;;;;;;10575769;28;20042;-82
2021/06/30 10:00:46;;;;;;;12.73;11.52;;;;;;;;;;10593737;28;20036;-87
2021/06/30 10:05:56;;;;;;;11.65;10.35;;;;;;;;;;10578520;28;20104;-84
2021/06/30 10:11:27;;;;;;;11.48;10.48;;;;;;;;;;10592131;28;20042;-85
2021/06/30 10:28:11;;;;;;;10.48;9.48;;;;;;;;;;10596043;28;20020;-87
2021/06/30 10:33:42;;;;;;;10.25;9.35;;;;;;;;;;10569486;28;20035;-88
2021/06/30 10:38:54;;;;;;;8.90;8.00;;;;;;;;;;10542703;28;20036;-85
2021/06/30 10:44:16;;;;;;;7.65;6.95;;;;;;;;;;10588288;28;20061;-87
2021/06/30 10:55:06;;;;;;;7.22;6.45;;;;;;;;;;10627502;22;20044;-86
2021/06/30 11:00:12;;;;;;;6.45;5.85;;;;;;;;;;10565935;28;20032;-86
2021/06/30 11:05:14;;;;;;;4.65;4.25;;;;;;;;;;10564740;28;20049;-86
2021/06/30 11:10:20;;;;;;;4.28;3.88;;;;;;;;;;10528759;28;20558;-86
2021/06/30 11:15:40;;;;;;;4.47;3.88;;;;;;;;;;10565651;28;20036;-84
2021/06/30 11:20:50;;;;;;;4.32;3.28;;;;;;;;;;10561495;28;20039;-87
2021/06/30 11:25:55;;;;;;;3.92;3.40;;;;;;;;;;10567116;28;20450;-86
2021/06/30 11:31:02;;;;;;;3.90;3.60;;;;;;;;;;10555161;28;20512;-85
2021/06/30 11:36:03;;;;;;;3.70;2.90;;;;;;;;;;10564027;28;20020;-85
2021/06/30 11:41:13;;;;;;;4.03;2.80;;;;;;;;;;10570792;28;20028;-86
2021/06/30 11:46:31;;;;;;;4.57;2.83;;;;;;;;;;10570028;28;20053;-86
2021/06/30 11:51:33;;;;;;;3.78;2.85;;;;;;;;;;10567371;28;20024;-87
2021/06/30 11:56:41;;;;;;;6.05;2.45;;;;;;;;;;10560589;28;20091;-85
2021/06/30 12:02:01;;;;;;;3.97;2.20;;;;;;;;;;10563355;28;20032;-85
2021/06/30 12:07:04;;;;;;;3.72;3.22;;;;;;;;;;10558876;28;20031;-87
2021/06/30 12:12:06;;;;;;;3.30;3.00;;;;;;;;;;10562028;28;20028;-86
2021/06/30 12:17:11;;;;;;;3.50;2.30;;;;;;;;;;10566836;28;20030;-86
2021/06/30 12:22:32;;;;;;;3.53;3.22;;;;;;;;;;10555566;28;20074;-86
2021/06/30 12:27:35;;;;;;;4.63;3.20;;;;;;;;;;10557962;28;20039;-86
2021/06/30 12:32:56;;;;;;;3.72;3.42;;;;;;;;;;10555291;28;20028;-87
2021/06/30 12:37:59;;;;;;;3.10;2.83;;;;;;;;;;10533541;28;20031;-86
2021/06/30 12:43:02;;;;;;;2.58;2.38;;;;;;;;;;10548945;28;20145;-86
2021/06/30 12:48:05;;;;;;;3.47;3.10;;;;;;;;;;10549112;28;20397;-86
2021/06/30 12:53:06;;;;;;;3.83;3.40;;;;;;;;;;10549046;28;20028;-85
2021/06/30 12:58:07;;;;;;;4.45;2.85;;;;;;;;;;10552275;28;20020;-87
2021/06/30 13:03:09;;;;;;;2.72;2.22;;;;;;;;;;10553526;28;20446;-84
2021/06/30 13:08:29;;;;;;;3.50;2.78;;;;;;;;;;10559984;28;20024;-85
2021/06/30 13:13:30;;;;;;;4.65;3.00;;;;;;;;;;10557974;28;20050;-85
2021/06/30 13:18:40;;;;;;;3.63;2.88;;;;;;;;;;10558323;28;20020;-85
2021/06/30 13:34:36;;;;;;;5.47;2.85;;;;;;;;;;10560388;28;20060;-85
2021/06/30 13:39:38;;;;;;;3.53;2.75;;;;;;;;;;10534250;28;20032;-85
2021/06/30 13:44:39;;;;;;;4.72;3.40;;;;;;;;;;10552803;28;20039;-86
2021/06/30 13:49:40;;;;;;;4.18;3.05;;;;;;;;;;10553798;28;20020;-84
2021/06/30 13:54:41;;;;;;;3.50;3.20;;;;;;;;;;10550816;28;20044;-83
2021/06/30 13:59:42;;;;;;;4.22;3.25;;;;;;;;;;10553342;28;20025;-83
2021/06/30 14:04:43;;;;;;;6.38;3.70;;;;;;;;;;10562684;28;20024;-86
2021/06/30 14:09:51;;;;;;;5.57;4.20;;;;;;;;;;10565389;28;20027;-84
2021/06/30 14:14:52;;;;;;;5.18;3.80;;;;;;;;;;10566360;28;20385;-85
2021/06/30 14:19:53;;;;;;;6.10;4.45;;;;;;;;;;10565236;28;20028;-85
2021/06/30 14:24:54;;;;;;;7.60;6.82;;;;;;;;;;10560904;28;20031;-85
2021/06/30 14:29:58;;;;;;;6.40;5.25;;;;;;;;;;10558988;28;20024;-85
2021/06/30 14:34:59;;;;;;;6.63;4.00;;;;;;;;;;10561903;28;20449;-85
2021/06/30 14:40:01;;;;;;;4.18;3.80;;;;;;;;;;10528587;28;20396;-86
2021/06/30 14:45:07;;;;;;;5.38;3.75;;;;;;;;;;10585420;28;20025;-86
2021/06/30 14:50:20;;;;;;;5.15;4.65;;;;;;;;;;10558763;28;20062;-87
2021/06/30 14:55:32;;;;;;;7.10;6.50;;;;;;;;;;10557485;28;20032;-86
2021/06/30 15:00:33;;;;;;;6.88;4.93;;;;;;;;;;10557373;28;20056;-85
2021/06/30 15:05:35;;;;;;;5.90;4.40;;;;;;;;;;10555694;28;20024;-85
2021/06/30 15:10:36;;;;;;;5.05;4.53;;;;;;;;;;10556607;28;20024;-86
2021/06/30 15:15:37;;;;;;;4.32;3.90;;;;;;;;;;10556922;28;20401;-84
2021/06/30 15:20:40;;;;;;;4.25;3.85;;;;;;;;;;10559346;28;20032;-86
2021/06/30 15:25:42;;;;;;;4.63;3.80;;;;;;;;;;10558357;28;20038;-86
2021/06/30 15:30:46;;;;;;;3.88;3.50;;;;;;;;;;10560020;28;20024;-85
2021/06/30 15:35:47;;;;;;;4.05;3.20;;;;;;;;;;10562118;28;20016;-84
2021/06/30 15:40:48;;;;;;;4.18;3.78;;;;;;;;;;10561788;28;20405;-87
2021/06/30 15:45:49;;;;;;;3.83;3.20;;;;;;;;;;10558982;28;20334;-86
2021/06/30 15:50:50;;;;;;;4.35;3.83;;;;;;;;;;10550915;28;20454;-87
2021/06/30 15:55:55;;;;;;;4.93;4.20;;;;;;;;;;10555450;28;20028;-85
2021/06/30 16:00:58;;;;;;;4.68;3.35;;;;;;;;;;10558188;28;20106;-86
2021/06/30 16:06:04;;;;;;;6.57;3.40;;;;;;;;;;10558468;28;20020;-85
2021/06/30 16:11:05;;;;;;;4.13;3.38;;;;;;;;;;10557194;28;20023;-86
2021/06/30 16:16:06;;;;;;;4.10;3.70;;;;;;;;;;10559933;28;20024;-85
2021/06/30 16:21:07;;;;;;;5.18;3.10;;;;;;;;;;10552041;28;20474;-88
2021/06/30 16:26:08;;;;;;;3.75;3.45;;;;;;;;;;10549767;28;20070;-87
2021/06/30 16:31:12;;;;;;;3.72;2.80;;;;;;;;;;10549844;28;20572;-85
2021/06/30 16:36:24;;;;;;;3.10;2.70;;;;;;;;;;10547657;28;20045;-89
2021/06/30 16:41:26;;;;;;;4.97;3.70;;;;;;;;;;10525330;28;20039;-88
2021/06/30 16:46:30;;;;;;;4.00;3.70;;;;;;;;;;10551205;28;20044;-88
2021/06/30 16:57:10;;;;;;;3.40;3.07;;;;;;;;;;10587384;22;20052;-84
2021/06/30 17:02:11;;;;;;;2.75;2.47;;;;;;;;;;10563718;28;20743;-83
2021/06/30 17:07:19;;;;;;;4.50;2.78;;;;;;;;;;10562012;28;20024;-84
2021/06/30 17:12:21;;;;;;;3.33;2.35;;;;;;;;;;10562747;28;20035;-84
2021/06/30 17:17:23;;;;;;;5.10;2.60;;;;;;;;;;10562273;28;20036;-84
2021/06/30 17:22:29;;;;;;;2.53;2.22;;;;;;;;;;10571059;28;20020;-85
2021/06/30 17:27:30;;;;;;;2.38;1.98;;;;;;;;;;10570740;28;20027;-85
2021/06/30 17:32:32;;;;;;;2.85;2.03;;;;;;;;;;10562150;28;20450;-83
2021/06/30 17:37:33;;;;;;;8.52;7.63;;;;;;;;;;10559951;28;20070;-84
2021/06/30 17:42:34;;;;;;;4.38;3.10;;;;;;;;;;10566291;28;20020;-85
2021/06/30 17:47:35;;;;;;;4.07;2.60;;;;;;;;;;10560770;28;20024;-84
2021/06/30 17:52:36;;;;;;;3.17;2.85;;;;;;;;;;10561101;28;20062;-85
2021/06/30 17:57:40;;;;;;;3.25;2.70;;;;;;;;;;10569390;28;20039;-84
2021/06/30 18:02:49;;;;;;;4.30;2.95;;;;;;;;;;10560320;28;20020;-83
2021/06/30 18:07:58;;;;;;;4.40;3.65;;;;;;;;;;10560354;28;20460;-85
2021/06/30 18:13:02;;;;;;;6.22;3.50;;;;;;;;;;10563782;28;20458;-87
2021/06/30 18:18:04;;;;;;;5.47;4.30;;;;;;;;;;10569024;28;20020;-87
2021/06/30 18:23:24;;;;;;;5.45;4.10;;;;;;;;;;10561587;28;20500;-83
2021/06/30 18:29:04;;;;;;;6.15;5.07;;;;;;;;;;10559685;28;20020;-86
2021/06/30 18:34:08;;;;;;;6.85;5.40;;;;;;;;;;10559179;28;20058;-87
2021/06/30 18:39:09;;;;;;;5.63;4.57;;;;;;;;;;10559835;28;20031;-86
2021/06/30 18:44:10;;;;;;;7.03;5.13;;;;;;;;;;10557787;28;20028;-85
2021/06/30 18:49:21;;;;;;;8.25;5.70;;;;;;;;;;10569735;28;20024;-86
2021/06/30 18:54:28;;;;;;;10.75;9.65;;;;;;;;;;10570159;28;20099;-85
2021/06/30 18:59:29;;;;;;;6.28;5.40;;;;;;;;;;10564040;28;20538;-85
2021/06/30 19:04:35;;;;;;;5.90;5.30;;;;;;;;;;10566935;28;20342;-86
2021/06/30 19:14:55;;;;;;;5.70;4.72;;;;;;;;;;10570202;28;20063;-85
2021/06/30 19:19:58;;;;;;;5.57;4.95;;;;;;;;;;10546309;28;20028;-84
2021/06/30 19:25:26;;;;;;;6.38;4.47;;;;;;;;;;10565189;28;20020;-85
2021/06/30 19:36:11;;;;;;;5.13;3.80;;;;;;;;;;10570372;28;20452;-85
2021/06/30 19:41:40;;;;;;;4.93;2.58;;;;;;;;;;10572097;28;20039;-85
2021/06/30 19:46:42;;;;;;;3.97;3.40;;;;;;;;;;10535888;28;20482;-84
2021/06/30 19:51:46;;;;;;;3.13;2.58;;;;;;;;;;10554271;28;20295;-83
2021/06/30 19:56:47;;;;;;;4.43;2.80;;;;;;;;;;10550779;28;20047;-86
2021/06/30 20:01:48;;;;;;;3.58;2.90;;;;;;;;;;10549490;28;20144;-84
2021/06/30 20:06:49;;;;;;;3.35;2.67;;;;;;;;;;10549466;28;20465;-84
2021/06/30 20:11:52;;;;;;;4.60;3.20;;;;;;;;;;10551912;28;20123;-85
2021/06/30 20:16:53;;;;;;;3.40;2.88;;;;;;;;;;10551941;28;20111;-85
